sensor_id;sensor_type;location;lat;lon;timestamp;temperature;humidity
32753;DHT22;19121;52.428;10.816;2023-07-29T00:00:26;23.90;56.30
32753;DHT22;19121;52.428;10.816;2023-07-29T00:02:53;23.90;56.20
32753;DHT22;19121;52.428;10.816;2023-07-29T00:05:18;23.90;56.20
32753;DHT22;19121;52.428;10.816;2023-07-29T00:07:44;23.80;56.20
32753;DHT22;19121;52.428;10.816;2023-07-29T00:10:09;23.80;56.20
32753;DHT22;19121;52.428;10.816;2023-07-29T00:12:35;23.80;56.20
32753;DHT22;19121;52.428;10.816;2023-07-29T00:15:00;23.80;56.20
32753;DHT22;19121;52.428;10.816;2023-07-29T00:17:25;23.80;56.20
32753;DHT22;19121;52.428;10.816;2023-07-29T00:19:51;23.80;56.80
32753;DHT22;19121;52.428;10.816;2023-07-29T00:22:16;23.80;56.20
32753;DHT22;19121;52.428;10.816;2023-07-29T00:24:42;23.80;56.20
32753;DHT22;19121;52.428;10.816;2023-07-29T00:27:07;23.80;56.20
32753;DHT22;19121;52.428;10.816;2023-07-29T00:29:33;23.80;56.10
32753;DHT22;19121;52.428;10.816;2023-07-29T00:31:58;23.80;56.00
32753;DHT22;19121;52.428;10.816;2023-07-29T00:34:24;23.80;56.10
32753;DHT22;19121;52.428;10.816;2023-07-29T00:36:49;23.80;56.10
32753;DHT22;19121;52.428;10.816;2023-07-29T00:39:15;23.70;56.10
32753;DHT22;19121;52.428;10.816;2023-07-29T00:41:40;23.80;56.20
32753;DHT22;19121;52.428;10.816;2023-07-29T00:44:05;23.80;56.10
32753;DHT22;19121;52.428;10.816;2023-07-29T00:46:32;23.80;56.10
32753;DHT22;19121;52.428;10.816;2023-07-29T00:48:58;23.70;56.10
32753;DHT22;19121;52.428;10.816;2023-07-29T00:51:24;23.70;56.00
32753;DHT22;19121;52.428;10.816;2023-07-29T00:53:49;23.70;56.10
32753;DHT22;19121;52.428;10.816;2023-07-29T00:56:15;23.70;56.10
32753;DHT22;19121;52.428;10.816;2023-07-29T00:58:40;23.70;56.00
32753;DHT22;19121;52.428;10.816;2023-07-29T01:01:06;23.70;56.00
32753;DHT22;19121;52.428;10.816;2023-07-29T01:03:31;23.70;56.10
32753;DHT22;19121;52.428;10.816;2023-07-29T01:16:52;23.70;56.00
32753;DHT22;19121;52.428;10.816;2023-07-29T01:19:24;23.70;55.90
32753;DHT22;19121;52.428;10.816;2023-07-29T01:21:53;23.70;56.00
32753;DHT22;19121;52.428;10.816;2023-07-29T01:24:20;23.70;56.00
32753;DHT22;19121;52.428;10.816;2023-07-29T01:26:45;23.70;56.00
32753;DHT22;19121;52.428;10.816;2023-07-29T01:29:10;23.70;56.00
32753;DHT22;19121;52.428;10.816;2023-07-29T01:31:38;23.70;55.90
32753;DHT22;19121;52.428;10.816;2023-07-29T01:34:06;23.70;56.00
32753;DHT22;19121;52.428;10.816;2023-07-29T01:36:34;23.70;56.00
32753;DHT22;19121;52.428;10.816;2023-07-29T01:39:05;23.70;56.00
32753;DHT22;19121;52.428;10.816;2023-07-29T01:41:30;23.70;56.00
32753;DHT22;19121;52.428;10.816;2023-07-29T01:43:56;23.70;56.00
32753;DHT22;19121;52.428;10.816;2023-07-29T01:46:21;23.70;55.90
32753;DHT22;19121;52.428;10.816;2023-07-29T01:48:47;23.70;56.00
32753;DHT22;19121;52.428;10.816;2023-07-29T01:51:12;23.70;56.00
32753;DHT22;19121;52.428;10.816;2023-07-29T01:53:38;23.70;56.00
32753;DHT22;19121;52.428;10.816;2023-07-29T01:56:04;23.70;55.90
32753;DHT22;19121;52.428;10.816;2023-07-29T01:58:29;23.70;55.90
32753;DHT22;19121;52.428;10.816;2023-07-29T02:00:54;23.60;55.90
32753;DHT22;19121;52.428;10.816;2023-07-29T02:03:20;23.60;55.90
32753;DHT22;19121;52.428;10.816;2023-07-29T02:05:45;23.70;55.90
32753;DHT22;19121;52.428;10.816;2023-07-29T02:08:11;23.60;55.90
32753;DHT22;19121;52.428;10.816;2023-07-29T02:10:36;23.60;55.90
32753;DHT22;19121;52.428;10.816;2023-07-29T02:13:03;23.60;55.70
32753;DHT22;19121;52.428;10.816;2023-07-29T02:15:28;23.60;55.80
32753;DHT22;19121;52.428;10.816;2023-07-29T02:17:53;23.60;55.90
32753;DHT22;19121;52.428;10.816;2023-07-29T02:20:21;23.60;55.80
32753;DHT22;19121;52.428;10.816;2023-07-29T02:22:46;23.60;55.90
32753;DHT22;19121;52.428;10.816;2023-07-29T02:25:13;23.60;55.80
32753;DHT22;19121;52.428;10.816;2023-07-29T02:27:39;23.60;55.80
32753;DHT22;19121;52.428;10.816;2023-07-29T02:30:04;23.60;55.90
32753;DHT22;19121;52.428;10.816;2023-07-29T02:32:30;23.60;55.80
32753;DHT22;19121;52.428;10.816;2023-07-29T02:34:55;23.60;55.70
32753;DHT22;19121;52.428;10.816;2023-07-29T02:37:21;23.60;55.80
32753;DHT22;19121;52.428;10.816;2023-07-29T02:39:46;23.60;55.70
32753;DHT22;19121;52.428;10.816;2023-07-29T02:42:12;23.60;55.70
32753;DHT22;19121;52.428;10.816;2023-07-29T02:44:37;23.60;55.70
32753;DHT22;19121;52.428;10.816;2023-07-29T02:47:03;23.60;55.70
32753;DHT22;19121;52.428;10.816;2023-07-29T02:49:28;23.60;55.70
32753;DHT22;19121;52.428;10.816;2023-07-29T02:51:53;23.60;55.70
32753;DHT22;19121;52.428;10.816;2023-07-29T02:54:19;23.60;55.70
32753;DHT22;19121;52.428;10.816;2023-07-29T02:56:44;23.60;55.70
32753;DHT22;19121;52.428;10.816;2023-07-29T02:59:10;23.60;55.80
32753;DHT22;19121;52.428;10.816;2023-07-29T03:01:35;23.50;55.60
32753;DHT22;19121;52.428;10.816;2023-07-29T03:04:00;23.50;55.60
32753;DHT22;19121;52.428;10.816;2023-07-29T03:06:26;23.60;55.70
32753;DHT22;19121;52.428;10.816;2023-07-29T03:08:51;23.50;55.60
32753;DHT22;19121;52.428;10.816;2023-07-29T03:11:17;23.50;55.60
32753;DHT22;19121;52.428;10.816;2023-07-29T03:13:43;23.50;55.60
32753;DHT22;19121;52.428;10.816;2023-07-29T03:16:10;23.50;55.60
32753;DHT22;19121;52.428;10.816;2023-07-29T03:18:36;23.50;55.60
32753;DHT22;19121;52.428;10.816;2023-07-29T03:21:01;23.60;55.70
32753;DHT22;19121;52.428;10.816;2023-07-29T03:23:28;23.50;55.60
32753;DHT22;19121;52.428;10.816;2023-07-29T03:25:57;23.50;55.50
32753;DHT22;19121;52.428;10.816;2023-07-29T03:28:27;23.50;55.60
32753;DHT22;19121;52.428;10.816;2023-07-29T03:30:53;23.50;55.60
32753;DHT22;19121;52.428;10.816;2023-07-29T03:33:19;23.50;55.60
32753;DHT22;19121;52.428;10.816;2023-07-29T03:35:44;23.50;55.60
32753;DHT22;19121;52.428;10.816;2023-07-29T03:38:10;23.50;55.60
32753;DHT22;19121;52.428;10.816;2023-07-29T03:40:37;23.50;55.70
32753;DHT22;19121;52.428;10.816;2023-07-29T03:43:02;23.50;55.60
32753;DHT22;19121;52.428;10.816;2023-07-29T03:45:27;23.50;55.60
32753;DHT22;19121;52.428;10.816;2023-07-29T03:47:53;23.50;55.60
32753;DHT22;19121;52.428;10.816;2023-07-29T03:50:18;23.50;55.60
32753;DHT22;19121;52.428;10.816;2023-07-29T03:52:44;23.50;55.60
32753;DHT22;19121;52.428;10.816;2023-07-29T03:55:09;23.50;55.60
32753;DHT22;19121;52.428;10.816;2023-07-29T03:57:35;23.50;55.60
32753;DHT22;19121;52.428;10.816;2023-07-29T04:00:00;23.50;55.70
32753;DHT22;19121;52.428;10.816;2023-07-29T04:02:26;23.50;55.60
32753;DHT22;19121;52.428;10.816;2023-07-29T04:04:51;23.40;55.50
32753;DHT22;19121;52.428;10.816;2023-07-29T04:07:17;23.50;55.60
32753;DHT22;19121;52.428;10.816;2023-07-29T04:09:42;23.50;55.50
32753;DHT22;19121;52.428;10.816;2023-07-29T04:12:09;23.50;55.60
32753;DHT22;19121;52.428;10.816;2023-07-29T04:14:34;23.50;55.60
32753;DHT22;19121;52.428;10.816;2023-07-29T04:17:00;23.40;55.50
32753;DHT22;19121;52.428;10.816;2023-07-29T04:19:25;23.40;55.50
32753;DHT22;19121;52.428;10.816;2023-07-29T04:21:51;23.40;55.60
32753;DHT22;19121;52.428;10.816;2023-07-29T04:24:16;23.40;55.50
32753;DHT22;19121;52.428;10.816;2023-07-29T04:26:41;23.40;55.70
32753;DHT22;19121;52.428;10.816;2023-07-29T04:29:07;23.40;55.60
32753;DHT22;19121;52.428;10.816;2023-07-29T04:31:32;23.40;55.60
32753;DHT22;19121;52.428;10.816;2023-07-29T04:33:58;23.40;55.70
32753;DHT22;19121;52.428;10.816;2023-07-29T04:36:23;23.40;55.70
32753;DHT22;19121;52.428;10.816;2023-07-29T04:38:49;23.40;55.50
32753;DHT22;19121;52.428;10.816;2023-07-29T04:41:14;23.40;55.70
32753;DHT22;19121;52.428;10.816;2023-07-29T04:43:40;23.40;55.70
32753;DHT22;19121;52.428;10.816;2023-07-29T04:46:06;23.40;55.70
32753;DHT22;19121;52.428;10.816;2023-07-29T04:48:31;23.40;55.80
32753;DHT22;19121;52.428;10.816;2023-07-29T04:50:57;23.40;55.80
32753;DHT22;19121;52.428;10.816;2023-07-29T04:53:22;23.40;55.80
32753;DHT22;19121;52.428;10.816;2023-07-29T04:55:48;23.50;55.90
32753;DHT22;19121;52.428;10.816;2023-07-29T04:58:13;23.40;55.80
32753;DHT22;19121;52.428;10.816;2023-07-29T05:00:38;23.40;55.80
32753;DHT22;19121;52.428;10.816;2023-07-29T05:03:04;23.40;55.80
32753;DHT22;19121;52.428;10.816;2023-07-29T05:05:29;23.40;55.80
32753;DHT22;19121;52.428;10.816;2023-07-29T05:07:55;23.40;55.70
32753;DHT22;19121;52.428;10.816;2023-07-29T05:10:20;23.40;55.80
32753;DHT22;19121;52.428;10.816;2023-07-29T05:12:45;23.40;55.70
32753;DHT22;19121;52.428;10.816;2023-07-29T05:15:11;23.40;55.80
32753;DHT22;19121;52.428;10.816;2023-07-29T05:17:36;23.40;55.80
32753;DHT22;19121;52.428;10.816;2023-07-29T05:20:02;23.40;55.70
32753;DHT22;19121;52.428;10.816;2023-07-29T05:22:28;23.40;55.80
32753;DHT22;19121;52.428;10.816;2023-07-29T05:24:53;23.40;55.70
32753;DHT22;19121;52.428;10.816;2023-07-29T05:27:19;23.40;55.70
32753;DHT22;19121;52.428;10.816;2023-07-29T05:29:44;23.40;55.70
32753;DHT22;19121;52.428;10.816;2023-07-29T05:32:09;23.40;55.70
32753;DHT22;19121;52.428;10.816;2023-07-29T05:34:35;23.40;55.70
32753;DHT22;19121;52.428;10.816;2023-07-29T05:37:00;23.50;55.70
32753;DHT22;19121;52.428;10.816;2023-07-29T05:39:26;23.50;55.80
32753;DHT22;19121;52.428;10.816;2023-07-29T05:41:51;23.40;55.60
32753;DHT22;19121;52.428;10.816;2023-07-29T05:44:17;23.40;55.60
32753;DHT22;19121;52.428;10.816;2023-07-29T05:46:42;23.50;55.70
32753;DHT22;19121;52.428;10.816;2023-07-29T05:49:07;23.50;55.70
32753;DHT22;19121;52.428;10.816;2023-07-29T05:51:33;23.40;55.70
32753;DHT22;19121;52.428;10.816;2023-07-29T05:53:58;23.50;55.80
32753;DHT22;19121;52.428;10.816;2023-07-29T05:56:24;23.50;55.80
32753;DHT22;19121;52.428;10.816;2023-07-29T05:58:49;23.50;55.80
32753;DHT22;19121;52.428;10.816;2023-07-29T06:01:15;23.50;55.80
32753;DHT22;19121;52.428;10.816;2023-07-29T06:03:40;23.50;55.80
32753;DHT22;19121;52.428;10.816;2023-07-29T06:06:06;23.50;55.80
32753;DHT22;19121;52.428;10.816;2023-07-29T06:08:31;23.50;55.80
32753;DHT22;19121;52.428;10.816;2023-07-29T06:10:59;23.50;55.80
32753;DHT22;19121;52.428;10.816;2023-07-29T06:13:25;23.50;55.80
32753;DHT22;19121;52.428;10.816;2023-07-29T06:15:50;23.50;55.70
32753;DHT22;19121;52.428;10.816;2023-07-29T06:18:16;23.50;55.70
32753;DHT22;19121;52.428;10.816;2023-07-29T06:20:41;23.50;55.70
32753;DHT22;19121;52.428;10.816;2023-07-29T06:23:07;23.50;55.70
32753;DHT22;19121;52.428;10.816;2023-07-29T06:25:33;23.50;56.30
32753;DHT22;19121;52.428;10.816;2023-07-29T06:27:58;23.50;55.70
32753;DHT22;19121;52.428;10.816;2023-07-29T06:30:24;23.50;55.70
32753;DHT22;19121;52.428;10.816;2023-07-29T06:32:49;23.50;55.70
32753;DHT22;19121;52.428;10.816;2023-07-29T06:35:15;23.50;55.70
32753;DHT22;19121;52.428;10.816;2023-07-29T06:37:40;23.60;55.70
32753;DHT22;19121;52.428;10.816;2023-07-29T06:40:06;23.50;55.70
32753;DHT22;19121;52.428;10.816;2023-07-29T06:42:31;23.60;55.70
32753;DHT22;19121;52.428;10.816;2023-07-29T06:44:56;23.60;56.30
32753;DHT22;19121;52.428;10.816;2023-07-29T06:47:22;23.60;55.70
32753;DHT22;19121;52.428;10.816;2023-07-29T06:49:47;23.50;55.60
32753;DHT22;19121;52.428;10.816;2023-07-29T06:52:13;23.60;55.70
32753;DHT22;19121;52.428;10.816;2023-07-29T06:54:38;23.60;55.70
32753;DHT22;19121;52.428;10.816;2023-07-29T06:57:04;23.50;55.60
32753;DHT22;19121;52.428;10.816;2023-07-29T06:59:29;23.50;55.60
32753;DHT22;19121;52.428;10.816;2023-07-29T07:01:54;23.50;56.20
32753;DHT22;19121;52.428;10.816;2023-07-29T07:04:20;23.50;55.60
32753;DHT22;19121;52.428;10.816;2023-07-29T07:06:45;23.50;55.60
32753;DHT22;19121;52.428;10.816;2023-07-29T07:09:11;23.60;55.70
32753;DHT22;19121;52.428;10.816;2023-07-29T07:11:37;23.50;55.60
32753;DHT22;19121;52.428;10.816;2023-07-29T07:14:02;23.50;55.60
32753;DHT22;19121;52.428;10.816;2023-07-29T07:16:27;23.50;55.60
32753;DHT22;19121;52.428;10.816;2023-07-29T07:18:55;23.50;55.60
32753;DHT22;19121;52.428;10.816;2023-07-29T07:21:21;23.50;55.60
32753;DHT22;19121;52.428;10.816;2023-07-29T07:23:46;23.50;55.60
32753;DHT22;19121;52.428;10.816;2023-07-29T07:26:14;23.50;55.60
32753;DHT22;19121;52.428;10.816;2023-07-29T07:28:39;23.50;55.60
32753;DHT22;19121;52.428;10.816;2023-07-29T07:31:05;23.50;55.60
32753;DHT22;19121;52.428;10.816;2023-07-29T07:33:30;23.50;56.20
32753;DHT22;19121;52.428;10.816;2023-07-29T07:35:55;23.50;55.60
32753;DHT22;19121;52.428;10.816;2023-07-29T07:38:21;23.50;55.60
32753;DHT22;19121;52.428;10.816;2023-07-29T07:40:53;23.60;55.70
32753;DHT22;19121;52.428;10.816;2023-07-29T07:43:20;23.50;55.60
32753;DHT22;19121;52.428;10.816;2023-07-29T07:45:45;23.50;55.50
32753;DHT22;19121;52.428;10.816;2023-07-29T07:48:11;23.50;55.50
32753;DHT22;19121;52.428;10.816;2023-07-29T07:50:38;23.50;55.60
32753;DHT22;19121;52.428;10.816;2023-07-29T07:53:04;23.50;55.50
32753;DHT22;19121;52.428;10.816;2023-07-29T07:55:29;23.50;55.50
32753;DHT22;19121;52.428;10.816;2023-07-29T07:57:55;23.50;55.50
32753;DHT22;19121;52.428;10.816;2023-07-29T08:00:20;23.50;55.50
32753;DHT22;19121;52.428;10.816;2023-07-29T08:02:46;23.50;55.50
32753;DHT22;19121;52.428;10.816;2023-07-29T08:05:11;23.50;55.50
32753;DHT22;19121;52.428;10.816;2023-07-29T08:07:37;23.50;55.50
32753;DHT22;19121;52.428;10.816;2023-07-29T08:10:02;23.50;55.60
32753;DHT22;19121;52.428;10.816;2023-07-29T08:12:28;23.50;55.60
32753;DHT22;19121;52.428;10.816;2023-07-29T08:14:53;23.50;55.60
32753;DHT22;19121;52.428;10.816;2023-07-29T08:17:19;23.50;55.70
32753;DHT22;19121;52.428;10.816;2023-07-29T08:19:44;23.50;55.70
32753;DHT22;19121;52.428;10.816;2023-07-29T08:22:10;23.50;55.70
32753;DHT22;19121;52.428;10.816;2023-07-29T08:24:35;23.50;55.80
32753;DHT22;19121;52.428;10.816;2023-07-29T08:27:00;23.50;55.80
32753;DHT22;19121;52.428;10.816;2023-07-29T08:29:26;23.50;55.80
32753;DHT22;19121;52.428;10.816;2023-07-29T08:31:52;23.50;55.80
32753;DHT22;19121;52.428;10.816;2023-07-29T08:34:17;23.50;55.80
32753;DHT22;19121;52.428;10.816;2023-07-29T08:36:43;23.50;55.80
32753;DHT22;19121;52.428;10.816;2023-07-29T08:39:08;23.50;55.80
32753;DHT22;19121;52.428;10.816;2023-07-29T08:41:37;23.50;55.70
32753;DHT22;19121;52.428;10.816;2023-07-29T08:44:12;23.50;55.70
32753;DHT22;19121;52.428;10.816;2023-07-29T08:46:39;23.50;55.70
32753;DHT22;19121;52.428;10.816;2023-07-29T08:49:04;23.50;55.70
32753;DHT22;19121;52.428;10.816;2023-07-29T08:51:31;23.60;55.70
32753;DHT22;19121;52.428;10.816;2023-07-29T08:53:56;23.50;55.70
32753;DHT22;19121;52.428;10.816;2023-07-29T08:56:23;23.60;55.70
32753;DHT22;19121;52.428;10.816;2023-07-29T08:58:49;23.60;55.70
32753;DHT22;19121;52.428;10.816;2023-07-29T09:01:14;23.60;55.70
32753;DHT22;19121;52.428;10.816;2023-07-29T09:03:40;23.60;55.70
32753;DHT22;19121;52.428;10.816;2023-07-29T09:06:06;23.60;55.70
32753;DHT22;19121;52.428;10.816;2023-07-29T09:08:32;23.60;55.70
32753;DHT22;19121;52.428;10.816;2023-07-29T09:10:58;23.60;55.70
32753;DHT22;19121;52.428;10.816;2023-07-29T09:13:24;23.60;55.70
32753;DHT22;19121;52.428;10.816;2023-07-29T09:15:53;23.60;55.70
32753;DHT22;19121;52.428;10.816;2023-07-29T09:18:19;23.60;55.70
32753;DHT22;19121;52.428;10.816;2023-07-29T09:20:48;23.60;55.70
32753;DHT22;19121;52.428;10.816;2023-07-29T09:23:14;23.60;55.70
32753;DHT22;19121;52.428;10.816;2023-07-29T09:25:39;23.70;55.80
32753;DHT22;19121;52.428;10.816;2023-07-29T09:28:15;23.60;55.70
32753;DHT22;19121;52.428;10.816;2023-07-29T09:30:41;23.70;55.70
32753;DHT22;19121;52.428;10.816;2023-07-29T09:33:08;23.70;55.70
32753;DHT22;19121;52.428;10.816;2023-07-29T09:35:34;23.70;55.70
32753;DHT22;19121;52.428;10.816;2023-07-29T09:38:00;23.70;55.70
32753;DHT22;19121;52.428;10.816;2023-07-29T09:40:26;23.70;55.60
32753;DHT22;19121;52.428;10.816;2023-07-29T09:42:52;23.80;55.70
32753;DHT22;19121;52.428;10.816;2023-07-29T09:45:25;23.70;55.60
32753;DHT22;19121;52.428;10.816;2023-07-29T09:47:54;23.80;55.70
32753;DHT22;19121;52.428;10.816;2023-07-29T09:50:24;23.70;55.60
32753;DHT22;19121;52.428;10.816;2023-07-29T09:52:50;23.80;55.60
32753;DHT22;19121;52.428;10.816;2023-07-29T09:55:21;23.80;55.60
32753;DHT22;19121;52.428;10.816;2023-07-29T09:57:46;23.80;55.60
32753;DHT22;19121;52.428;10.816;2023-07-29T10:00:12;23.80;55.60
32753;DHT22;19121;52.428;10.816;2023-07-29T10:02:39;23.80;55.70
32753;DHT22;19121;52.428;10.816;2023-07-29T10:05:05;23.80;55.80
32753;DHT22;19121;52.428;10.816;2023-07-29T10:07:31;23.90;56.60
32753;DHT22;19121;52.428;10.816;2023-07-29T10:09:56;24.00;56.50
32753;DHT22;19121;52.428;10.816;2023-07-29T10:12:23;24.00;56.70
32753;DHT22;19121;52.428;10.816;2023-07-29T10:14:49;24.00;56.80
32753;DHT22;19121;52.428;10.816;2023-07-29T10:17:15;24.10;56.80
32753;DHT22;19121;52.428;10.816;2023-07-29T10:19:41;24.10;56.70
32753;DHT22;19121;52.428;10.816;2023-07-29T10:22:08;24.10;56.80
32753;DHT22;19121;52.428;10.816;2023-07-29T10:24:35;24.10;56.90
32753;DHT22;19121;52.428;10.816;2023-07-29T10:27:03;24.10;56.90
32753;DHT22;19121;52.428;10.816;2023-07-29T10:29:31;24.10;56.80
32753;DHT22;19121;52.428;10.816;2023-07-29T10:31:58;24.20;56.80
32753;DHT22;19121;52.428;10.816;2023-07-29T10:34:26;24.20;56.80
32753;DHT22;19121;52.428;10.816;2023-07-29T10:36:52;24.20;56.70
32753;DHT22;19121;52.428;10.816;2023-07-29T10:39:18;24.20;56.80
32753;DHT22;19121;52.428;10.816;2023-07-29T10:41:59;24.20;57.10
32753;DHT22;19121;52.428;10.816;2023-07-29T10:47:11;24.20;57.40
32753;DHT22;19121;52.428;10.816;2023-07-29T10:49:39;24.20;57.60
32753;DHT22;19121;52.428;10.816;2023-07-29T10:52:05;24.20;58.00
32753;DHT22;19121;52.428;10.816;2023-07-29T10:54:31;24.20;58.10
32753;DHT22;19121;52.428;10.816;2023-07-29T10:57:06;24.20;58.50
32753;DHT22;19121;52.428;10.816;2023-07-29T10:59:32;24.20;58.70
32753;DHT22;19121;52.428;10.816;2023-07-29T11:01:59;24.20;58.80
32753;DHT22;19121;52.428;10.816;2023-07-29T11:04:29;24.20;58.90
32753;DHT22;19121;52.428;10.816;2023-07-29T11:17:35;24.30;58.80
32753;DHT22;19121;52.428;10.816;2023-07-29T11:20:01;24.20;58.70
32753;DHT22;19121;52.428;10.816;2023-07-29T11:22:28;24.20;58.60
32753;DHT22;19121;52.428;10.816;2023-07-29T11:24:54;24.30;58.60
32753;DHT22;19121;52.428;10.816;2023-07-29T11:27:19;24.20;58.50
32753;DHT22;19121;52.428;10.816;2023-07-29T11:29:44;24.30;58.50
32753;DHT22;19121;52.428;10.816;2023-07-29T11:32:10;24.20;58.30
32753;DHT22;19121;52.428;10.816;2023-07-29T11:34:35;24.30;58.30
32753;DHT22;19121;52.428;10.816;2023-07-29T11:37:01;24.30;58.30
32753;DHT22;19121;52.428;10.816;2023-07-29T11:39:26;24.30;58.20
32753;DHT22;19121;52.428;10.816;2023-07-29T11:41:52;24.30;58.10
32753;DHT22;19121;52.428;10.816;2023-07-29T11:44:17;24.30;58.10
32753;DHT22;19121;52.428;10.816;2023-07-29T11:46:43;24.30;58.00
32753;DHT22;19121;52.428;10.816;2023-07-29T11:49:09;24.30;58.00
32753;DHT22;19121;52.428;10.816;2023-07-29T11:51:34;24.30;58.00
32753;DHT22;19121;52.428;10.816;2023-07-29T11:54:00;24.30;57.90
32753;DHT22;19121;52.428;10.816;2023-07-29T11:56:26;24.30;57.80
32753;DHT22;19121;52.428;10.816;2023-07-29T11:58:51;24.40;57.90
32753;DHT22;19121;52.428;10.816;2023-07-29T12:01:18;24.40;57.80
32753;DHT22;19121;52.428;10.816;2023-07-29T12:03:44;24.40;57.80
32753;DHT22;19121;52.428;10.816;2023-07-29T12:06:10;24.40;57.80
32753;DHT22;19121;52.428;10.816;2023-07-29T12:08:35;24.40;57.70
32753;DHT22;19121;52.428;10.816;2023-07-29T12:11:01;24.40;57.70
32753;DHT22;19121;52.428;10.816;2023-07-29T12:13:26;24.40;57.70
32753;DHT22;19121;52.428;10.816;2023-07-29T12:15:52;24.40;57.70
32753;DHT22;19121;52.428;10.816;2023-07-29T12:18:29;24.40;57.60
32753;DHT22;19121;52.428;10.816;2023-07-29T12:20:55;24.40;57.60
32753;DHT22;19121;52.428;10.816;2023-07-29T12:23:24;24.40;57.60
32753;DHT22;19121;52.428;10.816;2023-07-29T12:25:49;24.40;57.60
32753;DHT22;19121;52.428;10.816;2023-07-29T12:28:15;24.40;57.50
32753;DHT22;19121;52.428;10.816;2023-07-29T12:30:43;24.40;57.40
32753;DHT22;19121;52.428;10.816;2023-07-29T12:33:08;24.40;57.40
32753;DHT22;19121;52.428;10.816;2023-07-29T12:35:37;24.40;57.40
32753;DHT22;19121;52.428;10.816;2023-07-29T12:38:02;24.40;57.40
32753;DHT22;19121;52.428;10.816;2023-07-29T12:40:28;24.40;57.40
32753;DHT22;19121;52.428;10.816;2023-07-29T12:42:54;24.40;57.40
32753;DHT22;19121;52.428;10.816;2023-07-29T12:45:19;24.40;57.40
32753;DHT22;19121;52.428;10.816;2023-07-29T12:47:46;24.40;57.30
32753;DHT22;19121;52.428;10.816;2023-07-29T12:50:12;24.40;57.30
32753;DHT22;19121;52.428;10.816;2023-07-29T12:52:37;24.40;57.30
32753;DHT22;19121;52.428;10.816;2023-07-29T12:55:03;24.50;57.40
32753;DHT22;19121;52.428;10.816;2023-07-29T12:57:28;24.40;57.90
32753;DHT22;19121;52.428;10.816;2023-07-29T12:59:54;24.40;57.20
32753;DHT22;19121;52.428;10.816;2023-07-29T13:02:19;24.30;57.20
32753;DHT22;19121;52.428;10.816;2023-07-29T13:04:45;24.40;57.20
32753;DHT22;19121;52.428;10.816;2023-07-29T13:07:11;24.40;57.20
32753;DHT22;19121;52.428;10.816;2023-07-29T13:09:36;24.50;57.20
32753;DHT22;19121;52.428;10.816;2023-07-29T13:12:01;24.40;57.10
32753;DHT22;19121;52.428;10.816;2023-07-29T13:14:27;24.40;57.20
32753;DHT22;19121;52.428;10.816;2023-07-29T13:16:52;24.50;57.30
32753;DHT22;19121;52.428;10.816;2023-07-29T13:19:18;24.40;57.10
32753;DHT22;19121;52.428;10.816;2023-07-29T13:21:43;24.40;57.10
32753;DHT22;19121;52.428;10.816;2023-07-29T13:24:09;24.50;57.20
32753;DHT22;19121;52.428;10.816;2023-07-29T13:26:34;24.50;57.20
32753;DHT22;19121;52.428;10.816;2023-07-29T13:29:00;24.50;57.10
32753;DHT22;19121;52.428;10.816;2023-07-29T13:31:26;24.50;57.10
32753;DHT22;19121;52.428;10.816;2023-07-29T13:33:51;24.50;57.10
32753;DHT22;19121;52.428;10.816;2023-07-29T13:36:17;24.50;57.10
32753;DHT22;19121;52.428;10.816;2023-07-29T13:38:42;24.50;57.00
32753;DHT22;19121;52.428;10.816;2023-07-29T13:41:07;24.50;57.10
32753;DHT22;19121;52.428;10.816;2023-07-29T13:43:33;24.50;57.50
32753;DHT22;19121;52.428;10.816;2023-07-29T13:45:58;24.50;56.90
32753;DHT22;19121;52.428;10.816;2023-07-29T13:48:24;24.50;56.90
32753;DHT22;19121;52.428;10.816;2023-07-29T13:50:49;24.50;56.90
32753;DHT22;19121;52.428;10.816;2023-07-29T13:53:16;24.50;56.90
32753;DHT22;19121;52.428;10.816;2023-07-29T13:55:41;24.50;56.80
32753;DHT22;19121;52.428;10.816;2023-07-29T13:58:07;24.60;56.90
32753;DHT22;19121;52.428;10.816;2023-07-29T14:00:32;24.50;56.80
32753;DHT22;19121;52.428;10.816;2023-07-29T14:02:58;24.60;56.80
32753;DHT22;19121;52.428;10.816;2023-07-29T14:05:23;24.50;56.70
32753;DHT22;19121;52.428;10.816;2023-07-29T14:07:48;24.60;56.80
32753;DHT22;19121;52.428;10.816;2023-07-29T14:10:14;24.60;56.70
32753;DHT22;19121;52.428;10.816;2023-07-29T14:12:39;24.60;57.30
32753;DHT22;19121;52.428;10.816;2023-07-29T14:15:05;24.60;56.70
32753;DHT22;19121;52.428;10.816;2023-07-29T14:17:31;24.60;56.60
32753;DHT22;19121;52.428;10.816;2023-07-29T14:19:57;24.60;56.60
32753;DHT22;19121;52.428;10.816;2023-07-29T14:22:22;24.60;56.60
32753;DHT22;19121;52.428;10.816;2023-07-29T14:24:47;24.60;56.50
32753;DHT22;19121;52.428;10.816;2023-07-29T14:27:13;24.60;56.50
32753;DHT22;19121;52.428;10.816;2023-07-29T14:29:39;24.60;56.50
32753;DHT22;19121;52.428;10.816;2023-07-29T14:32:04;24.60;56.50
32753;DHT22;19121;52.428;10.816;2023-07-29T14:34:30;24.60;56.40
32753;DHT22;19121;52.428;10.816;2023-07-29T14:36:55;24.60;56.40
32753;DHT22;19121;52.428;10.816;2023-07-29T14:39:21;24.60;56.40
32753;DHT22;19121;52.428;10.816;2023-07-29T14:41:46;24.60;56.40
32753;DHT22;19121;52.428;10.816;2023-07-29T14:44:12;24.60;56.40
32753;DHT22;19121;52.428;10.816;2023-07-29T14:46:37;24.60;56.40
32753;DHT22;19121;52.428;10.816;2023-07-29T14:49:03;24.60;56.30
32753;DHT22;19121;52.428;10.816;2023-07-29T14:51:28;24.60;56.30
32753;DHT22;19121;52.428;10.816;2023-07-29T14:53:54;24.70;56.30
32753;DHT22;19121;52.428;10.816;2023-07-29T14:56:19;24.60;56.20
32753;DHT22;19121;52.428;10.816;2023-07-29T14:58:44;24.60;56.20
32753;DHT22;19121;52.428;10.816;2023-07-29T15:01:10;24.60;56.20
32753;DHT22;19121;52.428;10.816;2023-07-29T15:03:35;24.70;56.20
32753;DHT22;19121;52.428;10.816;2023-07-29T15:06:01;24.60;56.20
32753;DHT22;19121;52.428;10.816;2023-07-29T15:08:28;24.70;56.80
32753;DHT22;19121;52.428;10.816;2023-07-29T15:10:53;24.70;56.80
32753;DHT22;19121;52.428;10.816;2023-07-29T15:13:20;24.70;56.20
32753;DHT22;19121;52.428;10.816;2023-07-29T15:15:45;24.70;56.20
32753;DHT22;19121;52.428;10.816;2023-07-29T15:18:10;24.70;56.20
32753;DHT22;19121;52.428;10.816;2023-07-29T15:20:36;24.70;56.20
32753;DHT22;19121;52.428;10.816;2023-07-29T15:23:02;24.70;56.10
32753;DHT22;19121;52.428;10.816;2023-07-29T15:25:27;24.70;56.10
32753;DHT22;19121;52.428;10.816;2023-07-29T15:27:52;24.70;56.10
32753;DHT22;19121;52.428;10.816;2023-07-29T15:30:18;24.60;56.00